Hovedside
METAR-TAF:

METAR-TAF

Lufthavner :

Mthatha, Sør-Afrika

breddegrad: 31-32-47S, lengdegrad: 028-40-31E, høyde over havet: 740 m

Gjeldene værobservasjon

Denne rapporten ble laget for 8 timer og 20 minutter siden, klokken 18:00 UTC
Vind 5 kt fra Sør
Temperatur 11°C
Luftfuktighet 87%
Trykk 1027 hPa
Sikt 10 km eller mer
ingen skyer under 1500 m og ingen bygeskyer

METAR: FAUT 131800Z 17005KT CAVOK 11/09 Q1027

Tid: 04:20 (02:20 UTC)

Varsel

Denne rapporten ble laget for 17 timer og 20 minutter siden, klokken 09:00 UTC
Varsel gyldig fra 13. klokken 10 UTC til 13. klokken 18 UTC
Vind 3 kt fra skiftende retning
Sikt 10 km eller mer
ingen skyer under 1500 m og ingen bygeskyer

TAF: FAUT 130900Z 1310/1318 VRB03KT CAVOK TX20/1312Z TN10/1318Z

Værobservasjoner og værvarsel for over 4000 flyplasser (METAR- og TAF-rapporter).

Tilgjengelige stasjoner er representert av de røde og gule prikkene på kartet.

Hold musepekeren over prikken for å se navnet på stasjonen.

Klikk så for å se værobservasjoner og -varsler.

For å forandre kartet kan du klikke på den grønne knappen med svart kryss for å zoome inn, på den grønne knappen med strek for å zoome ut, eller på de grønne pilene for å se tilstøtende kart.


METAR-TAF: